createdAt,value
2022-11-23T00:00:23.108Z,95108.38
2022-11-23T00:03:20.008Z,95115.06
2022-11-23T00:06:18.111Z,95110.31
2022-11-23T00:09:14.967Z,95110.31
2022-11-23T00:12:11.872Z,95109.94
2022-11-23T00:15:09.963Z,95110.81
2022-11-23T00:18:06.846Z,95114.28
2022-11-23T00:21:17.123Z,95119.13
2022-11-23T00:24:14.155Z,95118.28
2022-11-23T00:27:11.025Z,95114.53
2022-11-23T00:30:08.948Z,95113.47
2022-11-23T00:33:05.881Z,95116.63
2022-11-23T00:36:08.955Z,95121.78
2022-11-23T00:39:05.817Z,95119.63
2022-11-23T00:42:02.755Z,95131.59
2022-11-23T00:44:59.686Z,95116.97
2022-11-23T00:47:56.573Z,95113.06
2022-11-23T00:50:53.543Z,95116.19
2022-11-23T00:53:51.790Z,95124.13
2022-11-23T00:56:48.679Z,95121.31
2022-11-23T00:59:45.786Z,95121.50
2022-11-23T01:02:42.675Z,95118.19
2022-11-23T01:05:39.808Z,95111.50
2022-11-23T01:08:37.750Z,95119.84
2022-11-23T01:11:35.435Z,95128.19
2022-11-23T01:14:32.356Z,95124.53
2022-11-23T01:17:29.285Z,95116.69
2022-11-23T01:20:26.170Z,95125.13
2022-11-23T01:23:23.293Z,95125.53
2022-11-23T01:26:20.875Z,95126.00
2022-11-23T01:29:17.748Z,95127.38
2022-11-23T01:32:14.645Z,95128.88
2022-11-23T01:35:11.539Z,95133.38
2022-11-23T01:38:08.782Z,95132.28
2022-11-23T01:41:11.968Z,95134.94
2022-11-23T01:44:31.468Z,95138.16
2022-11-23T01:47:28.421Z,95138.84
2022-11-23T01:50:26.253Z,95141.72
2022-11-23T01:53:23.470Z,95153.44
2022-11-23T01:56:26.978Z,95159.88
2022-11-23T01:59:25.483Z,95167.31
2022-11-23T02:02:22.654Z,95176.66
2022-11-23T02:05:24.156Z,95171.47
2022-11-23T02:08:21.969Z,95170.38
2022-11-23T02:11:18.889Z,95169.00
2022-11-23T02:14:21.926Z,95176.78
2022-11-23T02:17:22.050Z,95174.41
2022-11-23T02:20:19.549Z,95172.56
2022-11-23T02:23:46.580Z,95178.22
2022-11-23T02:26:44.140Z,95175.38
2022-11-23T02:29:41.766Z,95169.09
2022-11-23T02:32:38.926Z,95170.69
2022-11-23T02:35:36.071Z,95182.34
2022-11-23T02:38:34.097Z,95174.00
2022-11-23T02:41:50.476Z,95168.59
2022-11-23T02:45:20.184Z,95177.03
2022-11-23T02:48:18.371Z,95174.41
2022-11-23T02:51:15.272Z,95182.06
2022-11-23T02:54:12.329Z,95173.91
2022-11-23T02:57:10.031Z,95170.88
2022-11-23T03:00:08.118Z,95177.66
2022-11-23T03:03:05.447Z,95188.53
2022-11-23T03:06:02.538Z,95174.50
2022-11-23T03:08:59.645Z,95182.16
2022-11-23T03:11:56.624Z,95181.38
2022-11-23T03:14:53.568Z,95190.22
2022-11-23T03:17:50.597Z,95183.84
2022-11-23T03:20:47.483Z,95184.63
2022-11-23T03:23:44.740Z,95191.69
2022-11-23T03:26:41.641Z,95196.31
2022-11-23T03:29:38.510Z,95196.41
2022-11-23T03:32:36.391Z,95202.47
2022-11-23T03:35:33.250Z,95181.75
2022-11-23T03:38:30.709Z,95190.22
2022-11-23T03:41:27.818Z,95189.31
2022-11-23T03:44:24.874Z,95194.44
2022-11-23T03:47:21.829Z,95196.78
2022-11-23T03:50:18.851Z,95192.88
2022-11-23T03:53:15.783Z,95184.41
2022-11-23T03:56:13.549Z,95187.19
2022-11-23T03:59:10.448Z,95187.38
2022-11-23T04:02:08.132Z,95195.00
2022-11-23T04:05:05.858Z,95194.34
2022-11-23T04:08:02.818Z,95200.22
2022-11-23T04:11:00.203Z,95190.78
2022-11-23T04:13:57.086Z,95186.19
2022-11-23T04:16:54.031Z,95185.88
2022-11-23T04:19:50.961Z,95190.31
2022-11-23T04:22:47.890Z,95190.22
2022-11-23T04:25:46.185Z,95180.31
2022-11-23T04:28:43.052Z,95184.84
2022-11-23T04:31:39.998Z,95189.22
2022-11-23T04:34:37.188Z,95180.97
2022-11-23T04:37:34.090Z,95181.41
2022-11-23T04:40:31.788Z,95175.03
2022-11-23T04:43:28.680Z,95177.28
2022-11-23T04:46:25.984Z,95174.25
2022-11-23T04:49:22.821Z,95170.31
2022-11-23T04:52:19.693Z,95176.47
2022-11-23T04:55:16.669Z,95184.84
2022-11-23T04:58:13.621Z,95179.72
2022-11-23T05:01:10.633Z,95175.72
2022-11-23T05:04:07.801Z,95180.19
2022-11-23T05:07:04.803Z,95183.75
2022-11-23T05:10:02.028Z,95179.53
2022-11-23T05:12:58.994Z,95181.66
2022-11-23T05:15:55.829Z,95178.34
2022-11-23T05:18:52.660Z,95177.56
2022-11-23T05:21:49.517Z,95181.09
2022-11-23T05:24:46.368Z,95177.94
2022-11-23T05:27:43.251Z,95178.06
2022-11-23T05:30:40.093Z,95183.25
2022-11-23T05:33:37.170Z,95178.84
2022-11-23T05:36:35.153Z,95175.41
2022-11-23T05:39:34.723Z,95185.72
2022-11-23T05:42:32.761Z,95179.81
2022-11-23T05:45:29.663Z,95177.88
2022-11-23T05:48:27.053Z,95180.41
2022-11-23T05:51:23.959Z,95171.75
2022-11-23T05:54:20.996Z,95175.78
2022-11-23T05:57:18.064Z,95177.34
2022-11-23T06:00:15.717Z,95172.06
2022-11-23T06:03:12.669Z,95180.31
2022-11-23T06:06:09.661Z,95188.53
2022-11-23T06:09:06.510Z,95184.03
2022-11-23T06:12:03.932Z,95187.47
2022-11-23T06:15:00.816Z,95183.44
2022-11-23T06:18:02.218Z,95183.44
2022-11-23T06:21:02.145Z,95185.69
2022-11-23T06:23:59.000Z,95173.34
2022-11-23T06:26:55.842Z,95183.16
2022-11-23T06:29:52.702Z,95185.59
2022-11-23T06:32:49.816Z,95181.31
2022-11-23T06:35:54.834Z,95175.91
2022-11-23T06:38:51.677Z,95183.94
2022-11-23T06:41:48.637Z,95191.09
2022-11-23T06:44:45.470Z,95194.16
2022-11-23T06:47:42.358Z,95204.63
2022-11-23T06:50:39.232Z,95206.88
2022-11-23T06:53:36.576Z,95207.47
2022-11-23T06:56:33.430Z,95204.84
2022-11-23T06:59:30.484Z,95204.63
2022-11-23T07:02:27.657Z,95202.50
2022-11-23T07:05:24.972Z,95207.56
2022-11-23T07:08:22.302Z,95216.69
2022-11-23T07:11:19.162Z,95214.25
2022-11-23T07:14:16.198Z,95217.59
2022-11-23T07:17:17.320Z,95224.16
2022-11-23T07:20:15.056Z,95226.59
2022-11-23T07:23:12.668Z,95220.44
2022-11-23T07:26:09.803Z,95222.59
2022-11-23T07:29:06.763Z,95236.31
2022-11-23T07:32:03.796Z,95235.31
2022-11-23T07:35:01.140Z,95236.50
2022-11-23T07:37:58.112Z,95239.38
2022-11-23T07:40:55.071Z,95241.72
2022-11-23T07:43:52.104Z,95246.44
2022-11-23T07:46:49.012Z,95247.50
2022-11-23T07:49:45.863Z,95256.34
2022-11-23T07:52:42.756Z,95246.34
2022-11-23T07:55:39.608Z,95239.88
2022-11-23T07:58:36.507Z,95237.50
2022-11-23T08:01:33.483Z,95230.13
2022-11-23T08:04:30.812Z,95224.94
2022-11-23T08:07:27.893Z,95221.00
2022-11-23T08:10:25.187Z,95221.13
2022-11-23T08:13:22.849Z,95214.22
2022-11-23T08:16:20.068Z,95221.88
2022-11-23T08:19:17.488Z,95216.50
2022-11-23T08:22:15.849Z,95218.06
2022-11-23T08:25:13.451Z,95220.28
2022-11-23T08:28:10.985Z,95231.88
2022-11-23T08:31:11.352Z,95240.91
2022-11-23T08:34:08.236Z,95242.78
2022-11-23T08:37:05.100Z,95257.13
2022-11-23T08:40:02.146Z,95257.78
2022-11-23T08:42:59.195Z,95250.63
2022-11-23T08:46:04.704Z,95261.75
2022-11-23T08:49:04.948Z,95253.28
2022-11-23T08:52:01.920Z,95250.66
2022-11-23T08:54:58.778Z,95250.25
2022-11-23T08:57:57.706Z,95249.97
2022-11-23T09:00:54.616Z,95248.28
2022-11-23T09:03:51.565Z,95246.50
2022-11-23T09:06:48.399Z,95253.25
2022-11-23T09:09:45.314Z,95254.66
2022-11-23T09:12:42.326Z,95250.31
2022-11-23T09:15:39.640Z,95255.69
2022-11-23T09:18:36.785Z,95257.94
2022-11-23T09:21:35.753Z,95260.31
2022-11-23T09:24:32.889Z,95253.56
2022-11-23T09:27:30.077Z,95268.19
2022-11-23T09:30:28.026Z,95266.16
2022-11-23T09:33:25.785Z,95265.28
2022-11-23T09:36:26.161Z,95264.13
2022-11-23T09:39:23.027Z,95267.63
2022-11-23T09:42:40.309Z,95261.09
2022-11-23T09:45:55.019Z,95263.94
2022-11-23T09:49:11.917Z,95268.81
2022-11-23T09:52:19.419Z,95256.78
2022-11-23T09:55:22.835Z,95277.00
2022-11-23T09:58:22.736Z,95261.16
2022-11-23T10:01:20.244Z,95267.13
2022-11-23T10:04:20.234Z,95262.72
2022-11-23T10:07:28.987Z,95271.84
2022-11-23T10:10:53.912Z,95258.56
2022-11-23T10:14:13.985Z,95269.81
2022-11-23T10:17:35.709Z,95257.56
2022-11-23T10:21:02.366Z,95260.56
2022-11-23T10:24:08.483Z,95256.41
2022-11-23T10:27:16.291Z,95256.16
2022-11-23T10:30:15.844Z,95252.47
2022-11-23T10:33:45.068Z,95257.41
2022-11-23T10:36:42.978Z,95260.13
2022-11-23T10:39:40.494Z,95255.28
2022-11-23T10:42:47.831Z,95254.78
2022-11-23T10:45:44.664Z,95253.72
2022-11-23T10:48:44.569Z,95250.00
2022-11-23T10:51:53.221Z,95246.63
2022-11-23T10:54:55.433Z,95247.81
2022-11-23T10:57:52.617Z,95243.84
2022-11-23T11:01:00.841Z,95234.06
2022-11-23T11:04:04.686Z,95241.03
2022-11-23T11:07:23.973Z,95235.91
2022-11-23T11:11:02.863Z,95232.22
2022-11-23T11:14:19.959Z,95222.59
2022-11-23T11:17:28.405Z,95233.19
2022-11-23T11:20:34.897Z,95228.25
2022-11-23T11:23:33.557Z,95228.75
2022-11-23T11:26:33.999Z,95224.97
2022-11-23T11:29:39.977Z,95221.06
2022-11-23T11:32:56.261Z,95222.66
2022-11-23T11:35:55.860Z,95226.81
2022-11-23T11:39:17.277Z,95216.38
2022-11-23T11:42:27.142Z,95224.44
2022-11-23T11:45:36.646Z,95224.66
2022-11-23T11:48:45.629Z,95224.06
2022-11-23T11:51:48.776Z,95220.94
2022-11-23T11:55:19.700Z,95213.25
2022-11-23T11:58:17.599Z,95221.88
2022-11-23T12:01:35.641Z,95212.34
2022-11-23T12:04:56.327Z,95206.53
2022-11-23T12:08:06.648Z,95220.91
2022-11-23T12:11:05.741Z,95211.22
2022-11-23T12:14:05.727Z,95207.47
2022-11-23T12:17:32.300Z,95211.06
2022-11-23T12:20:33.052Z,95216.41
2022-11-23T12:24:28.922Z,95204.13
2022-11-23T12:27:39.274Z,95211.34
2022-11-23T12:31:08.758Z,95217.16
2022-11-23T12:34:11.356Z,95217.47
2022-11-23T12:37:44.330Z,95204.16
2022-11-23T12:41:07.931Z,95202.16
2022-11-23T12:44:44.912Z,95213.41
2022-11-23T12:48:09.036Z,95199.78
2022-11-23T12:51:35.243Z,95209.34
2022-11-23T12:55:19.571Z,95193.53
2022-11-23T12:58:32.773Z,95203.84
2022-11-23T13:01:39.786Z,95196.50
2022-11-23T13:05:03.115Z,95191.81
2022-11-23T13:08:32.514Z,95191.34
2022-11-23T13:11:58.034Z,95195.69
2022-11-23T13:15:47.450Z,95190.72
2022-11-23T13:19:22.726Z,95184.63
2022-11-23T13:22:22.504Z,95182.09
2022-11-23T13:25:29.765Z,95182.28
2022-11-23T13:28:31.389Z,95183.34
2022-11-23T13:31:32.165Z,95190.41
2022-11-23T13:34:46.824Z,95187.75
2022-11-23T13:38:23.715Z,95181.19
2022-11-23T13:41:35.361Z,95187.91
2022-11-23T13:44:33.477Z,95182.88
2022-11-23T13:47:30.761Z,95173.84
2022-11-23T13:50:27.665Z,95166.72
2022-11-23T13:53:33.265Z,95169.00
2022-11-23T13:56:41.064Z,95166.59
2022-11-23T13:59:37.968Z,95162.34
2022-11-23T14:02:34.883Z,95153.84
2022-11-23T14:05:59.402Z,95156.03
2022-11-23T14:09:33.157Z,95161.91
2022-11-23T14:13:15.926Z,95148.97
2022-11-23T14:16:18.454Z,95153.53
2022-11-23T14:20:02.143Z,95153.91
2022-11-23T14:23:56.716Z,95154.41
2022-11-23T14:27:54.260Z,95151.88
2022-11-23T14:31:17.833Z,95156.84
2022-11-23T14:34:29.294Z,95168.09
2022-11-23T14:38:12.831Z,95163.34
2022-11-23T14:41:31.050Z,95154.91
2022-11-23T14:44:34.271Z,95165.44
2022-11-23T14:47:34.265Z,95168.50
2022-11-23T14:50:31.512Z,95165.44
2022-11-23T14:53:54.155Z,95174.03
2022-11-23T14:57:05.329Z,95167.22
2022-11-23T15:00:07.083Z,95162.91
2022-11-23T15:06:46.155Z,95161.66
2022-11-23T15:10:05.444Z,95168.59
2022-11-23T15:13:02.368Z,95154.31
2022-11-23T15:16:03.593Z,95159.41
2022-11-23T15:19:00.456Z,95157.38
2022-11-23T15:21:58.290Z,95152.66
2022-11-23T15:25:06.301Z,95157.63
2022-11-23T15:28:03.178Z,95160.50
2022-11-23T15:31:00.197Z,95172.16
2022-11-23T15:34:03.510Z,95175.78
2022-11-23T15:37:02.374Z,95171.03
2022-11-23T15:40:00.114Z,95167.22
2022-11-23T15:42:57.384Z,95166.03
2022-11-23T15:45:54.423Z,95167.09
2022-11-23T15:48:56.985Z,95167.47
2022-11-23T15:52:00.958Z,95153.72
2022-11-23T15:55:10.205Z,95158.56
2022-11-23T15:58:09.437Z,95165.31
2022-11-23T16:01:13.325Z,95163.47
2022-11-23T16:04:40.148Z,95162.16
2022-11-23T16:07:57.559Z,95169.63
2022-11-23T16:10:55.791Z,95161.91
2022-11-23T16:13:52.750Z,95168.72
2022-11-23T16:17:14.615Z,95171.63
2022-11-23T16:20:16.553Z,95180.56
2022-11-23T16:23:21.593Z,95179.63
2022-11-23T16:26:18.833Z,95171.66
2022-11-23T16:29:26.888Z,95171.41
2022-11-23T16:32:31.072Z,95168.19
2022-11-23T16:35:27.980Z,95175.50
2022-11-23T16:38:25.411Z,95167.47
2022-11-23T16:41:22.242Z,95178.63
2022-11-23T16:44:19.780Z,95176.44
2022-11-23T16:47:19.043Z,95177.47
2022-11-23T16:50:16.017Z,95182.34
2022-11-23T16:53:17.947Z,95169.50
2022-11-23T16:56:26.809Z,95178.66
2022-11-23T16:59:23.831Z,95176.94
2022-11-23T17:02:20.958Z,95175.84
2022-11-23T17:05:20.828Z,95164.34
2022-11-23T17:08:23.309Z,95180.38
2022-11-23T17:11:24.934Z,95185.00
2022-11-23T17:14:28.062Z,95184.44
2022-11-23T17:17:26.790Z,95198.38
2022-11-23T17:20:24.662Z,95194.00
2022-11-23T17:23:22.295Z,95194.41
2022-11-23T17:26:37.028Z,95203.63
2022-11-23T17:29:37.769Z,95213.72
2022-11-23T17:32:37.328Z,95215.63
2022-11-23T17:35:38.145Z,95213.59
2022-11-23T17:38:36.624Z,95227.75
2022-11-23T17:41:33.519Z,95229.19
2022-11-23T17:44:30.420Z,95233.94
2022-11-23T17:47:29.988Z,95247.53
2022-11-23T17:50:28.680Z,95255.56
2022-11-23T17:53:25.765Z,95256.06
2022-11-23T17:56:25.665Z,95259.00
2022-11-23T17:59:22.551Z,95250.00
2022-11-23T18:02:20.019Z,95254.28
2022-11-23T18:05:21.501Z,95262.28
2022-11-23T18:08:18.829Z,95260.34
2022-11-23T18:11:15.857Z,95276.00
2022-11-23T18:14:12.721Z,95283.25
2022-11-23T18:17:09.661Z,95281.66
2022-11-23T18:20:08.316Z,95288.00
2022-11-23T18:23:05.462Z,95286.34
2022-11-23T18:26:21.710Z,95285.16
2022-11-23T18:29:18.594Z,95293.88
2022-11-23T18:32:15.838Z,95300.16
2022-11-23T18:35:12.746Z,95301.78
2022-11-23T18:38:09.647Z,95294.06
2022-11-23T18:41:07.150Z,95296.16
2022-11-23T18:44:04.220Z,95288.56
2022-11-23T18:47:01.302Z,95295.97
2022-11-23T18:50:02.052Z,95291.78
2022-11-23T18:53:03.725Z,95290.50
2022-11-23T18:56:05.014Z,95293.53
2022-11-23T18:59:02.828Z,95292.06
2022-11-23T19:01:59.762Z,95295.84
2022-11-23T19:04:56.722Z,95297.81
2022-11-23T19:07:54.624Z,95295.63
2022-11-23T19:10:51.656Z,95311.69
2022-11-23T19:13:52.512Z,95313.66
2022-11-23T19:16:49.402Z,95307.31
2022-11-23T19:19:46.440Z,95311.69
2022-11-23T19:22:43.469Z,95321.47
2022-11-23T19:25:41.358Z,95314.94
2022-11-23T19:28:38.740Z,95318.38
2022-11-23T19:31:35.825Z,95329.47
2022-11-23T19:34:32.916Z,95331.34
2022-11-23T19:37:29.947Z,95333.94
2022-11-23T19:40:26.948Z,95339.22
2022-11-23T19:43:23.892Z,95338.63
2022-11-23T19:46:21.298Z,95347.63
2022-11-23T19:49:18.582Z,95347.03
2022-11-23T19:52:15.521Z,95352.03
2022-11-23T19:55:12.392Z,95337.75
2022-11-23T19:58:09.271Z,95339.25
2022-11-23T20:01:10.775Z,95342.25
2022-11-23T20:04:10.257Z,95342.06
2022-11-23T20:07:07.455Z,95347.03
2022-11-23T20:10:04.928Z,95341.38
2022-11-23T20:13:01.856Z,95327.31
2022-11-23T20:16:04.063Z,95339.75
2022-11-23T20:19:07.285Z,95328.53
2022-11-23T20:22:04.234Z,95338.84
2022-11-23T20:25:01.114Z,95341.88
2022-11-23T20:27:58.053Z,95333.00
2022-11-23T20:30:54.981Z,95335.81
2022-11-23T20:33:54.004Z,95343.47
2022-11-23T20:36:50.956Z,95355.72
2022-11-23T20:39:47.797Z,95350.31
2022-11-23T20:42:44.659Z,95366.00
2022-11-23T20:45:41.539Z,95371.81
2022-11-23T20:48:40.484Z,95377.59
2022-11-23T20:51:37.345Z,95388.38
2022-11-23T20:54:34.449Z,95385.53
2022-11-23T20:57:31.452Z,95383.41
2022-11-23T21:00:28.278Z,95387.28
2022-11-23T21:03:25.260Z,95382.69
2022-11-23T21:06:23.223Z,95387.06
2022-11-23T21:09:20.159Z,95395.41
2022-11-23T21:12:47.599Z,95390.53
2022-11-23T21:15:47.295Z,95405.78
2022-11-23T21:18:44.214Z,95398.00
2022-11-23T21:21:41.298Z,95406.41
2022-11-23T21:24:38.734Z,95411.06
2022-11-23T21:27:35.594Z,95412.50
2022-11-23T21:30:32.531Z,95414.09
2022-11-23T21:33:29.983Z,95422.28
2022-11-23T21:36:26.819Z,95427.66
2022-11-23T21:39:24.209Z,95428.00
2022-11-23T21:42:21.220Z,95417.59
2022-11-23T21:45:18.196Z,95440.91
2022-11-23T21:48:15.041Z,95443.31
2022-11-23T21:51:14.994Z,95436.88
2022-11-23T21:54:15.478Z,95443.53
2022-11-23T21:57:12.414Z,95446.41
2022-11-23T22:00:10.080Z,95449.03
2022-11-23T22:03:06.911Z,95448.34
2022-11-23T22:06:04.777Z,95454.91
2022-11-23T22:09:01.810Z,95463.34
2022-11-23T22:11:59.015Z,95468.34
2022-11-23T22:14:55.865Z,95466.28
2022-11-23T22:17:52.730Z,95477.44
2022-11-23T22:20:49.553Z,95478.06
2022-11-23T22:23:46.740Z,95478.28
2022-11-23T22:26:44.989Z,95477.28
2022-11-23T22:29:41.835Z,95485.44
2022-11-23T22:32:38.699Z,95492.38
2022-11-23T22:35:35.516Z,95496.09
2022-11-23T22:38:33.391Z,95498.38
2022-11-23T22:41:36.226Z,95503.44
2022-11-23T22:44:33.333Z,95505.84
2022-11-23T22:47:30.366Z,95508.50
2022-11-23T22:50:27.198Z,95500.00
2022-11-23T22:53:24.964Z,95509.53
2022-11-23T22:56:21.960Z,95507.66
2022-11-23T22:59:19.092Z,95510.53
2022-11-23T23:02:15.943Z,95511.09
2022-11-23T23:05:12.869Z,95513.00
2022-11-23T23:08:10.400Z,95519.91
2022-11-23T23:11:07.718Z,95525.06
2022-11-23T23:14:05.626Z,95520.91
2022-11-23T23:17:02.477Z,95515.38
2022-11-23T23:19:59.298Z,95517.47
2022-11-23T23:22:56.216Z,95528.34
2022-11-23T23:25:56.530Z,95526.47
2022-11-23T23:28:58.951Z,95537.94
2022-11-23T23:31:55.892Z,95540.50
2022-11-23T23:34:52.844Z,95536.28
2022-11-23T23:37:51.770Z,95535.69
2022-11-23T23:40:48.605Z,95542.09
2022-11-23T23:43:47.943Z,95543.06
2022-11-23T23:46:44.904Z,95554.03
2022-11-23T23:49:41.775Z,95557.75
2022-11-23T23:52:38.703Z,95545.28
2022-11-23T23:55:35.566Z,95548.94
2022-11-23T23:58:32.616Z,95555.78
